Terminal Aerodrome Forecast
Issued by NWS Sioux Falls, SD

Home | Current Version | Previous Version | Text Only | Print | Product List | Glossary On
Versions: 1 2 3 4 5 6 7 8 9 10 11 12 13 14 15 16 17 18 19 20 21 22 23 24 25 26 27 28 29 30 31 32 33
601
FTUS43 KFSD 231512 AAA
TAFSUX
TAF AMD
KSUX 231512Z 2315/2412 14012KT P6SM BKN019 BKN045
     FM231700 18012KT P6SM BKN025 BKN045
      TEMPO 2319/2321 4SM TSRA OVC025CB
     FM232100 22010KT P6SM OVC040
     FM240100 17008KT P6SM SCT080
     FM240900 16004KT 4SM BR SCT120=

USA.gov is the U.S. government's official web portal to all federal, state and local government web resources and services.